Time;durP1;ratioP1;P1;durP2;ratioP2;P2;SDS_P1;SDS_P2;PMS_P1;PMS_P2;Temp;Humidity;BMP_temperature;BMP_pressure;BME280_temperature;BME280_humidity;BME280_pressure;Samples;Min_cycle;Max_cycle;Signal;HPM_P1;HPM_P2
2023/08/18 00:01:50;;;;;;;22.75;14.65;;;;;;;22.78;76.64;100897.25;5056904;28;20080;-62
2023/08/18 00:04:17;;;;;;;17.80;14.48;;;;;;;22.87;76.66;100888.47;5055488;28;20052;-62
2023/08/18 00:06:45;;;;;;;19.50;14.48;;;;;;;23.00;76.15;100889.72;5055453;28;20049;-61
2023/08/18 00:09:13;;;;;;;20.58;14.93;;;;;;;22.80;77.25;100882.81;5055348;28;20064;-62
2023/08/18 00:11:40;;;;;;;22.20;14.77;;;;;;;22.92;77.00;100877.66;5056912;28;20057;-61
2023/08/18 00:14:07;;;;;;;19.38;14.90;;;;;;;22.84;77.51;100886.44;5055319;28;20408;-62
2023/08/18 00:16:35;;;;;;;20.38;14.85;;;;;;;22.91;77.22;100872.44;5056900;28;20415;-61
2023/08/18 00:19:02;;;;;;;20.27;14.82;;;;;;;23.01;76.59;100880.13;5056446;28;20057;-63
2023/08/18 00:21:30;;;;;;;19.13;15.02;;;;;;;22.97;77.36;100887.72;5056508;28;20060;-63
2023/08/18 00:23:57;;;;;;;18.65;14.27;;;;;;;23.06;77.15;100888.16;5056549;28;20048;-62
2023/08/18 00:26:24;;;;;;;19.92;14.80;;;;;;;23.11;76.70;100880.16;5056095;28;20357;-62
2023/08/18 00:28:52;;;;;;;20.75;14.20;;;;;;;23.26;75.32;100879.03;5055600;28;20048;-61
2023/08/18 00:31:19;;;;;;;23.52;15.30;;;;;;;23.26;75.56;100872.59;5057632;28;20415;-61
2023/08/18 00:33:49;;;;;;;21.15;15.05;;;;;;;22.95;77.01;100865.63;5075282;28;20041;-62
2023/08/18 00:36:17;;;;;;;23.45;15.52;;;;;;;23.07;76.89;100870.09;5060041;28;20048;-61
2023/08/18 00:38:44;;;;;;;21.90;14.38;;;;;;;23.19;76.26;100873.38;5055186;28;20056;-62
2023/08/18 00:41:12;;;;;;;21.27;15.05;;;;;;;23.02;77.46;100868.47;5065895;28;20052;-62
2023/08/18 00:43:39;;;;;;;20.80;15.30;;;;;;;22.84;78.45;100861.94;5066324;28;20041;-62
2023/08/18 00:46:07;;;;;;;25.52;16.02;;;;;;;22.99;77.93;100868.47;5053633;28;20447;-62
2023/08/18 00:48:35;;;;;;;22.88;16.80;;;;;;;22.95;78.04;100867.63;5054001;28;20069;-62
2023/08/18 00:51:04;;;;;;;22.80;15.40;;;;;;;23.04;77.85;100870.88;5037036;28;20048;-62
2023/08/18 00:53:31;;;;;;;20.35;15.85;;;;;;;22.92;77.98;100868.41;5054872;28;20037;-62
2023/08/18 00:55:59;;;;;;;21.63;16.50;;;;;;;22.88;78.32;100868.41;5053094;28;20489;-61
2023/08/18 00:58:26;;;;;;;25.25;16.95;;;;;;;22.87;78.86;100868.81;5053422;28;20453;-60
2023/08/18 01:00:54;;;;;;;21.13;15.32;;;;;;;23.05;78.19;100861.25;5054103;28;20049;-62
2023/08/18 01:03:21;;;;;;;22.50;15.95;;;;;;;23.22;77.15;100861.34;5053234;28;20041;-60
2023/08/18 01:05:48;;;;;;;22.38;15.95;;;;;;;23.19;76.90;100864.94;5054621;28;20052;-61
2023/08/18 01:08:16;;;;;;;21.58;16.05;;;;;;;23.07;77.58;100859.66;5049590;28;20056;-60
2023/08/18 01:11:17;;;;;;;21.15;15.75;;;;;;;23.20;76.92;100866.56;5034231;28;20417;-60
2023/08/18 01:13:53;;;;;;;22.15;15.40;;;;;;;23.16;77.09;100860.13;5037406;28;20053;-60
2023/08/18 01:16:23;;;;;;;25.60;17.17;;;;;;;22.70;79.53;100856.25;5050023;28;20053;-60
2023/08/18 01:18:51;;;;;;;;;;;;;;;22.70;79.73;100852.66;5033599;28;20107;-62
2023/08/18 01:21:19;;;;;;;23.00;17.20;;;;;;;22.47;81.04;100843.63;5052896;28;19920;-61
2023/08/18 01:23:46;;;;;;;21.88;16.83;;;;;;;22.44;81.70;100845.22;5053016;28;20048;-61
2023/08/18 01:26:13;;;;;;;21.45;16.95;;;;;;;22.69;80.71;100851.03;5053777;28;20057;-61
2023/08/18 01:28:43;;;;;;;27.23;18.17;;;;;;;22.47;82.07;100858.50;5054103;28;20053;-64
2023/08/18 01:31:14;;;;;;;22.38;17.00;;;;;;;22.40;82.08;100847.22;5072378;28;20053;-61
2023/08/18 01:33:49;;;;;;;21.33;17.45;;;;;;;22.36;82.44;100846.38;5072718;28;20059;-60
2023/08/18 01:36:21;;;;;;;27.30;18.00;;;;;;;22.30;83.79;100843.09;5023450;28;20072;-60
2023/08/18 01:38:51;;;;;;;22.10;16.58;;;;;;;22.78;81.08;100849.50;5036922;28;20053;-61
2023/08/18 01:41:24;;;;;;;20.95;16.85;;;;;;;22.69;81.19;100851.03;5015762;28;1107414;-61
2023/08/18 01:43:52;;;;;;;27.33;19.05;;;;;;;22.30;83.09;100847.91;5053603;28;20056;-61
2023/08/18 01:46:19;;;;;;;23.90;18.45;;;;;;;22.02;85.57;100844.91;5055593;28;20160;-62
2023/08/18 01:48:46;;;;;;;24.80;18.55;;;;;;;22.04;85.71;100840.50;5055021;28;20053;-60
2023/08/18 01:51:14;;;;;;;23.40;17.98;;;;;;;22.03;85.51;100836.09;5036855;28;20049;-61
2023/08/18 01:53:41;;;;;;;23.25;17.98;;;;;;;22.44;84.00;100841.63;5049576;28;20064;-61
2023/08/18 01:56:08;;;;;;;25.30;17.67;;;;;;;22.48;82.92;100832.00;5032868;28;20056;-61
2023/08/18 01:58:36;;;;;;;26.20;18.10;;;;;;;22.48;82.62;100832.00;5017946;28;20060;-62
2023/08/18 02:01:04;;;;;;;23.70;17.50;;;;;;;22.43;83.76;100831.56;5053177;28;20400;-62
2023/08/18 02:03:31;;;;;;;24.83;18.20;;;;;;;22.65;82.39;100830.56;5055121;28;20057;-63
2023/08/18 02:06:00;;;;;;;23.33;18.30;;;;;;;22.34;83.38;100827.09;5054672;28;20049;-62
2023/08/18 02:08:27;;;;;;;26.17;17.48;;;;;;;22.40;83.79;100833.16;5054832;28;20404;-63
2023/08/18 02:11:03;;;;;;;20.05;16.67;;;;;;;22.23;84.17;100822.59;5053450;28;20052;-60
2023/08/18 02:13:31;;;;;;;24.15;18.20;;;;;;;22.13;85.30;100823.31;5052997;28;20041;-62
2023/08/18 02:15:58;;;;;;;28.67;17.92;;;;;;;22.31;84.84;100822.28;5053891;28;20053;-61
2023/08/18 02:18:27;;;;;;;23.92;17.73;;;;;;;22.61;82.75;100819.31;5053121;28;20044;-62
2023/08/18 02:20:56;;;;;;;25.58;17.83;;;;;;;22.69;81.70;100820.94;5054224;28;20063;-61
2023/08/18 02:23:23;;;;;;;28.65;18.65;;;;;;;22.38;83.71;100826.31;5054439;28;20040;-60
2023/08/18 02:25:51;;;;;;;27.25;17.27;;;;;;;22.50;84.14;100840.03;5053812;28;20048;-60
2023/08/18 02:28:18;;;;;;;25.00;18.00;;;;;;;22.48;83.40;100828.38;5054349;28;20060;-62
2023/08/18 02:30:46;;;;;;;22.42;17.23;;;;;;;22.70;82.08;100830.97;5068374;28;20044;-62
2023/08/18 02:33:13;;;;;;;25.05;17.70;;;;;;;22.58;83.11;100828.50;5072237;28;20049;-61
2023/08/18 02:35:44;;;;;;;27.65;18.85;;;;;;;22.38;83.66;100824.34;5063025;28;20531;-61
2023/08/18 02:38:15;;;;;;;21.90;18.17;;;;;;;22.17;85.17;100822.19;5053318;28;20063;-61
2023/08/18 02:40:43;;;;;;;25.05;19.00;;;;;;;22.24;85.09;100811.00;5053407;28;20056;-62
2023/08/18 02:43:10;;;;;;;27.42;19.92;;;;;;;21.95;86.82;100808.38;5054010;28;20049;-63
2023/08/18 02:45:38;;;;;;;25.15;19.30;;;;;;;22.12;86.10;100804.88;5052610;28;20422;-61
2023/08/18 02:48:05;;;;;;;23.35;18.75;;;;;;;22.22;84.96;100804.16;5053654;28;20049;-62
2023/08/18 02:50:33;;;;;;;28.77;19.05;;;;;;;22.02;86.43;100812.00;5052713;28;20049;-62
2023/08/18 02:53:03;;;;;;;26.20;20.15;;;;;;;22.02;86.79;100806.41;5053446;28;20059;-62
2023/08/18 02:55:32;;;;;;;24.73;19.13;;;;;;;22.15;86.40;100806.91;5053071;28;20044;-62
2023/08/18 02:58:01;;;;;;;27.52;19.42;;;;;;;22.09;86.80;100797.22;5053881;28;20528;-62
2023/08/18 03:00:29;;;;;;;24.90;18.77;;;;;;;22.22;85.98;100793.75;5054291;28;20068;-62
2023/08/18 03:02:58;;;;;;;24.92;19.17;;;;;;;22.28;85.33;100799.81;5053563;28;20052;-63
2023/08/18 03:05:26;;;;;;;26.77;19.50;;;;;;;22.17;85.82;100801.72;5053451;28;20041;-63
2023/08/18 03:07:53;;;;;;;24.98;19.17;;;;;;;22.23;85.66;100792.53;5051803;28;20049;-61
2023/08/18 03:10:20;;;;;;;28.23;18.67;;;;;;;22.18;86.04;100801.31;5052085;28;20049;-61
2023/08/18 03:12:47;;;;;;;25.05;20.10;;;;;;;21.98;86.65;100793.56;5051983;28;20057;-62
2023/08/18 03:15:15;;;;;;;27.15;20.58;;;;;;;21.91;87.98;100796.31;5052160;28;20060;-63
2023/08/18 03:17:42;;;;;;;29.98;19.98;;;;;;;22.12;86.18;100799.28;5053908;28;20734;-62
2023/08/18 03:20:10;;;;;;;25.38;19.88;;;;;;;22.03;86.69;100790.38;5052293;28;20652;-63
2023/08/18 03:22:37;;;;;;;24.17;19.42;;;;;;;22.39;84.99;100792.25;5051736;28;20460;-61
2023/08/18 03:25:05;;;;;;;30.08;19.42;;;;;;;22.24;85.04;100794.16;5051334;28;20048;-60
2023/08/18 03:27:33;;;;;;;25.27;19.25;;;;;;;22.17;86.50;100787.69;5053432;28;20055;-61
2023/08/18 03:30:00;;;;;;;26.23;19.90;;;;;;;22.21;86.33;100778.09;5062026;28;20065;-61
2023/08/18 03:32:28;;;;;;;24.63;19.05;;;;;;;22.42;84.90;100776.63;5054837;28;20065;-61
2023/08/18 03:34:56;;;;;;;26.73;20.55;;;;;;;22.27;85.31;100764.50;5052327;28;20067;-60
2023/08/18 03:37:24;;;;;;;27.48;19.10;;;;;;;22.23;85.96;100772.91;5052249;28;20056;-61
2023/08/18 03:39:54;;;;;;;30.58;19.73;;;;;;;22.42;84.77;100769.00;5051597;28;20052;-60
2023/08/18 03:42:22;;;;;;;;;;;;;;;22.30;85.08;100770.13;5053320;28;20056;-62
2023/08/18 03:44:49;;;;;;;25.13;20.08;;;;;;;22.12;86.25;100765.63;5053239;28;19921;-62
2023/08/18 03:47:16;;;;;;;23.83;19.40;;;;;;;22.30;85.81;100767.34;5052081;28;20041;-61
2023/08/18 03:49:44;;;;;;;24.92;20.27;;;;;;;22.47;84.65;100767.84;5051245;28;20049;-61
2023/08/18 03:52:11;;;;;;;28.40;20.48;;;;;;;22.27;85.45;100770.94;5034668;28;20589;-60
2023/08/18 03:54:39;;;;;;;26.35;20.23;;;;;;;22.25;85.90;100772.50;5022795;28;20774;-61
2023/08/18 03:57:06;;;;;;;26.88;20.90;;;;;;;22.26;85.70;100763.69;5031417;28;20045;-61
2023/08/18 03:59:33;;;;;;;25.50;19.90;;;;;;;22.34;85.28;100768.16;5031295;28;20053;-61
2023/08/18 04:02:01;;;;;;;30.02;21.33;;;;;;;22.24;85.62;100759.69;5031229;28;20053;-62
2023/08/18 04:04:28;;;;;;;26.30;20.42;;;;;;;22.53;84.81;100767.06;5031171;28;20672;-62
2023/08/18 04:06:55;;;;;;;26.60;20.38;;;;;;;22.50;83.91;100765.06;5033188;28;20050;-63
2023/08/18 04:09:23;;;;;;;31.27;22.70;;;;;;;22.20;85.45;100761.66;5033241;28;20053;-63
2023/08/18 04:11:51;;;;;;;29.50;21.83;;;;;;;21.82;87.75;100762.97;5033074;28;20065;-62
2023/08/18 04:14:20;;;;;;;27.60;20.95;;;;;;;22.06;87.72;100772.78;5015757;28;20053;-63
2023/08/18 04:16:48;;;;;;;28.00;21.10;;;;;;;22.22;86.07;100767.69;5035208;28;20424;-63
2023/08/18 04:19:16;;;;;;;29.75;21.08;;;;;;;22.18;86.92;100770.47;5031092;28;20049;-63
2023/08/18 04:21:43;;;;;;;27.38;21.73;;;;;;;22.05;86.78;100777.59;5051435;28;20428;-64
2023/08/18 04:24:13;;;;;;;30.83;22.48;;;;;;;21.99;88.11;100775.53;5052598;28;20463;-64
2023/08/18 04:26:40;;;;;;;26.85;21.25;;;;;;;22.06;87.66;100767.97;5052376;28;20563;-63
2023/08/18 04:29:09;;;;;;;27.52;20.95;;;;;;;22.10;87.06;100763.19;5052973;28;20056;-62
2023/08/18 04:31:37;;;;;;;28.95;21.48;;;;;;;21.92;87.94;100765.06;5072959;28;20059;-62
2023/08/18 04:34:14;;;;;;;25.05;20.67;;;;;;;22.13;87.60;100755.97;5072571;28;20067;-64
2023/08/18 04:36:42;;;;;;;26.90;22.50;;;;;;;21.98;87.46;100755.09;5056787;28;20049;-63
2023/08/18 04:39:10;;;;;;;30.00;22.35;;;;;;;22.05;87.62;100760.75;5055162;28;20049;-63
2023/08/18 04:41:38;;;;;;;27.15;21.02;;;;;;;22.07;87.06;100755.53;5054868;28;20420;-66
2023/08/18 04:44:06;;;;;;;27.75;22.67;;;;;;;21.73;88.84;100756.84;5054368;28;20076;-63
2023/08/18 04:46:34;;;;;;;33.78;22.95;;;;;;;21.77;89.54;100754.91;5054888;28;20045;-64
2023/08/18 04:49:07;;;;;;;32.35;23.17;;;;;;;21.76;89.54;100758.09;5052754;28;20405;-62
2023/08/18 04:51:34;;;;;;;29.83;22.10;;;;;;;21.77;89.75;100752.09;5054961;28;20524;-63
2023/08/18 04:54:02;;;;;;;33.28;23.10;;;;;;;21.63;90.21;100753.94;5038439;28;20057;-64
2023/08/18 04:56:29;;;;;;;33.33;24.00;;;;;;;21.49;92.16;100753.81;5056296;28;20049;-65
2023/08/18 04:58:57;;;;;;;34.60;23.58;;;;;;;21.37;93.29;100754.09;5054632;28;20040;-65
2023/08/18 05:01:25;;;;;;;37.92;23.73;;;;;;;21.49;92.47;100749.03;5054940;28;20068;-63
2023/08/18 05:03:52;;;;;;;33.20;23.73;;;;;;;21.50;92.25;100745.03;5037418;28;20053;-66
2023/08/18 05:06:26;;;;;;;33.90;23.92;;;;;;;21.60;92.14;100747.09;5055988;28;20044;-64
2023/08/18 05:08:53;;;;;;;32.03;23.58;;;;;;;21.67;91.47;100740.78;5049472;28;20045;-64
2023/08/18 05:11:21;;;;;;;37.90;25.77;;;;;;;21.66;91.51;100754.00;5036221;28;20049;-64
2023/08/18 05:13:49;;;;;;;33.28;24.55;;;;;;;21.80;90.80;100753.31;5035926;28;20053;-63
2023/08/18 05:16:16;;;;;;;33.90;26.20;;;;;;;21.85;90.31;100753.78;5036167;28;20045;-63
2023/08/18 05:18:44;;;;;;;33.90;24.13;;;;;;;21.92;89.45;100751.03;5034078;28;20050;-64
2023/08/18 05:21:11;;;;;;;34.42;24.80;;;;;;;21.90;89.81;100741.38;5045213;28;20551;-63
2023/08/18 05:23:39;;;;;;;33.55;25.13;;;;;;;21.80;90.04;100740.13;5054465;28;20053;-64
2023/08/18 05:26:07;;;;;;;38.78;25.25;;;;;;;21.72;91.49;100732.81;5055110;28;20051;-67
2023/08/18 05:28:34;;;;;;;30.83;24.65;;;;;;;21.70;91.15;100732.41;5053887;28;20065;-64
2023/08/18 05:31:01;;;;;;;34.97;25.23;;;;;;;21.68;91.45;100729.19;5072914;28;20060;-65
2023/08/18 05:33:29;;;;;;;45.13;24.35;;;;;;;21.86;90.26;100724.53;5073133;28;20048;-63
2023/08/18 05:35:58;;;;;;;97.65;28.33;;;;;;;22.20;89.56;100727.97;5053605;28;20068;-63
2023/08/18 05:38:26;;;;;;;53.28;24.52;;;;;;;22.37;87.42;100720.88;5054915;28;20049;-62
2023/08/18 05:41:03;;;;;;;46.78;23.30;;;;;;;22.63;86.74;100727.03;5054538;28;20049;-64
2023/08/18 05:43:37;;;;;;;37.22;21.70;;;;;;;22.85;85.62;100727.94;5054925;28;20052;-63
2023/08/18 05:46:05;;;;;;;36.55;21.08;;;;;;;22.92;84.07;100723.16;5053453;28;20061;-63
2023/08/18 05:48:33;;;;;;;34.35;21.90;;;;;;;23.02;83.94;100727.19;5054171;28;20392;-63
2023/08/18 05:51:01;;;;;;;34.03;23.13;;;;;;;22.74;84.21;100727.06;5055139;28;20535;-63
2023/08/18 05:53:30;;;;;;;28.50;21.10;;;;;;;22.78;84.98;100723.09;5054810;28;20493;-63
2023/08/18 05:55:57;;;;;;;28.20;20.30;;;;;;;23.05;84.03;100732.00;5055023;28;20063;-63
2023/08/18 05:58:25;;;;;;;28.42;21.42;;;;;;;23.03;83.14;100728.81;5046842;28;20148;-63
2023/08/18 06:00:52;;;;;;;28.80;20.55;;;;;;;23.15;83.42;100736.88;5034868;28;20060;-64
2023/08/18 06:03:20;;;;;;;31.75;21.08;;;;;;;23.30;82.00;100733.72;5034859;28;20045;-62
2023/08/18 06:05:48;;;;;;;34.30;21.02;;;;;;;23.19;82.71;100717.97;5032687;28;20053;-62
2023/08/18 06:08:16;;;;;;;25.80;20.52;;;;;;;23.14;83.22;100721.19;5033476;28;20060;-63
2023/08/18 06:10:43;;;;;;;28.67;19.50;;;;;;;23.34;82.80;100722.47;5034809;28;20053;-64
2023/08/18 06:13:11;;;;;;;25.77;17.70;;;;;;;23.40;82.64;100729.28;5038299;28;20060;-61
2023/08/18 06:15:38;;;;;;;25.70;18.48;;;;;;;23.15;84.88;100717.97;5054592;28;20049;-62
2023/08/18 06:18:06;;;;;;;38.50;18.92;;;;;;;23.28;85.02;100719.25;5053426;28;20065;-62
2023/08/18 06:20:33;;;;;;;25.30;19.45;;;;;;;23.24;84.82;100717.63;5053188;28;20060;-61
2023/08/18 06:23:01;;;;;;;24.98;17.15;;;;;;;23.49;84.38;100712.03;5035216;28;20476;-60
2023/08/18 06:25:28;;;;;;;21.83;16.52;;;;;;;23.48;84.31;100722.50;5062259;28;20060;-64
2023/08/18 06:27:56;;;;;;;25.45;17.05;;;;;;;23.59;83.93;100712.03;5053451;28;20500;-61
2023/08/18 06:30:23;;;;;;;23.35;16.42;;;;;;;23.79;82.99;100715.25;5059654;28;20061;-62
2023/08/18 06:32:57;;;;;;;28.40;17.40;;;;;;;23.94;82.64;100709.22;5054120;28;20056;-61
2023/08/18 06:35:24;;;;;;;26.88;18.27;;;;;;;23.82;81.82;100712.44;5054824;28;20396;-61
2023/08/18 06:37:52;;;;;;;26.67;20.15;;;;;;;23.73;81.36;100714.06;5053240;28;20067;-63
2023/08/18 06:40:19;;;;;;;27.75;19.77;;;;;;;23.59;81.96;100717.66;5054490;28;20045;-61
2023/08/18 06:42:48;;;;;;;28.95;21.90;;;;;;;23.69;81.59;100718.88;5052932;28;20531;-62
2023/08/18 06:45:16;;;;;;;29.10;20.85;;;;;;;23.58;81.37;100721.69;5033635;28;20049;-62
2023/08/18 06:47:43;;;;;;;27.98;21.95;;;;;;;23.77;81.69;100720.47;5052148;28;20053;-64
2023/08/18 06:50:11;;;;;;;26.17;18.73;;;;;;;23.77;82.24;100721.28;5054143;28;20052;-65
2023/08/18 06:52:38;;;;;;;28.13;18.67;;;;;;;23.86;81.44;100723.69;5052231;28;20072;-61
2023/08/18 06:55:13;;;;;;;28.93;19.00;;;;;;;23.66;81.73;100709.22;5033797;28;20076;-60
2023/08/18 06:57:47;;;;;;;26.23;18.38;;;;;;;23.89;82.46;100718.06;5032421;28;20295;-61
2023/08/18 07:00:15;;;;;;;26.42;16.75;;;;;;;23.99;81.99;100724.91;5033017;28;20057;-61
2023/08/18 07:02:46;;;;;;;19.73;15.65;;;;;;;24.27;80.63;100720.03;5033526;28;20080;-62
2023/08/18 07:05:14;;;;;;;22.95;16.48;;;;;;;24.15;80.95;100720.47;5034070;28;20052;-61
2023/08/18 07:07:41;;;;;;;22.40;16.52;;;;;;;23.92;82.75;100731.31;5033972;28;20053;-61
2023/08/18 07:10:09;;;;;;;26.60;16.75;;;;;;;23.97;82.63;100719.66;5033849;28;20053;-60
2023/08/18 07:12:36;;;;;;;20.77;16.65;;;;;;;23.98;82.27;100721.28;5033528;28;20057;-61
2023/08/18 07:15:04;;;;;;;22.48;16.13;;;;;;;24.23;81.43;100724.88;5032636;28;20052;-61
2023/08/18 07:17:31;;;;;;;21.55;16.02;;;;;;;24.25;80.73;100722.44;5033444;28;20052;-64
2023/08/18 07:19:59;;;;;;;26.30;17.80;;;;;;;24.26;81.07;100723.25;5033886;28;20048;-61
2023/08/18 07:22:26;;;;;;;29.58;17.35;;;;;;;24.25;80.26;100724.50;5053718;28;20449;-61
2023/08/18 07:24:54;;;;;;;23.90;17.30;;;;;;;24.12;81.48;100726.09;5052657;28;20057;-61
2023/08/18 07:27:21;;;;;;;27.38;16.30;;;;;;;24.27;80.98;100728.50;5051249;28;20421;-61
2023/08/18 07:29:49;;;;;;;25.55;14.70;;;;;;;24.50;80.72;100723.19;5049493;28;20055;-62
2023/08/18 07:32:17;;;;;;;20.55;15.38;;;;;;;24.61;79.94;100725.97;5073483;28;20055;-61
2023/08/18 07:34:45;;;;;;;19.75;14.30;;;;;;;24.75;78.99;100722.31;5067441;28;20045;-61
2023/08/18 07:37:12;;;;;;;22.10;14.43;;;;;;;24.63;79.54;100722.75;5053060;28;20068;-60
2023/08/18 07:39:39;;;;;;;23.83;15.52;;;;;;;24.57;80.02;100733.63;5040241;28;20076;-61
2023/08/18 07:42:08;;;;;;;23.95;15.43;;;;;;;24.63;80.34;100742.47;5031817;28;20049;-61
2023/08/18 07:44:35;;;;;;;21.50;15.68;;;;;;;24.80;79.86;100742.44;5040268;28;20068;-61
2023/08/18 07:47:03;;;;;;;21.27;16.17;;;;;;;24.72;79.64;100735.22;5052656;28;20079;-64
2023/08/18 07:49:30;;;;;;;24.48;16.92;;;;;;;24.76;79.69;100730.38;5052976;28;20049;-60
2023/08/18 07:51:58;;;;;;;24.63;16.20;;;;;;;25.04;77.90;100730.22;5053069;28;20053;-61
2023/08/18 07:54:26;;;;;;;22.75;14.73;;;;;;;24.66;79.42;100736.81;5052464;28;20070;-61
2023/08/18 07:56:54;;;;;;;24.27;15.20;;;;;;;24.87;78.56;100731.13;5053064;28;20535;-63
2023/08/18 07:59:21;;;;;;;18.73;14.65;;;;;;;24.96;78.42;100741.97;5053244;28;20056;-60
2023/08/18 08:01:49;;;;;;;22.20;14.15;;;;;;;25.12;77.87;100743.06;5052725;28;20049;-61
2023/08/18 08:04:16;;;;;;;20.10;13.88;;;;;;;25.06;77.78;100743.91;5051912;28;20502;-61
2023/08/18 08:06:43;;;;;;;20.80;13.77;;;;;;;25.11;77.71;100744.28;5053185;28;20052;-61
2023/08/18 08:09:11;;;;;;;22.05;13.30;;;;;;;25.06;78.40;100749.56;5053353;28;20047;-62
2023/08/18 08:11:38;;;;;;;24.20;14.70;;;;;;;24.98;77.85;100745.97;5056660;28;20057;-63
2023/08/18 08:14:06;;;;;;;18.73;13.40;;;;;;;25.11;78.18;100749.13;5056573;28;20511;-63
2023/08/18 08:16:35;;;;;;;20.20;13.57;;;;;;;25.24;76.80;100742.63;5056681;28;20414;-63
2023/08/18 08:19:04;;;;;;;21.15;14.10;;;;;;;25.17;77.21;100731.38;5055397;28;20056;-60
2023/08/18 08:21:32;;;;;;;21.13;13.13;;;;;;;25.09;77.71;100740.28;5055222;28;20052;-62
2023/08/18 08:24:04;;;;;;;16.45;13.60;;;;;;;25.44;76.75;100743.72;5056230;28;20541;-62
2023/08/18 08:26:31;;;;;;;22.23;14.70;;;;;;;25.36;76.84;100744.16;5054714;28;20539;-63
2023/08/18 08:28:58;;;;;;;20.85;16.25;;;;;;;25.45;76.71;100745.31;5054361;28;20049;-60
2023/08/18 08:31:27;;;;;;;15.32;13.05;;;;;;;25.26;76.68;100737.34;5036322;28;20056;-64
2023/08/18 08:33:54;;;;;;;22.27;12.98;;;;;;;25.46;77.07;100740.47;5047618;28;20049;-64
2023/08/18 08:36:22;;;;;;;18.17;13.18;;;;;;;25.58;75.82;100725.09;5056254;28;20048;-62
2023/08/18 08:38:49;;;;;;;15.90;12.45;;;;;;;25.54;76.17;100727.94;5056525;28;20049;-65
2023/08/18 08:41:16;;;;;;;16.75;12.50;;;;;;;25.76;75.34;100731.38;5056043;28;20069;-62
2023/08/18 08:43:44;;;;;;;16.63;12.18;;;;;;;25.68;75.37;100729.84;5056039;28;20049;-62
2023/08/18 08:46:12;;;;;;;16.42;13.05;;;;;;;25.96;74.25;100730.38;5037900;28;20462;-62
2023/08/18 08:48:45;;;;;;;17.10;12.45;;;;;;;25.91;73.93;100728.00;5055072;28;20100;-61
2023/08/18 08:51:14;;;;;;;17.05;12.77;;;;;;;25.79;74.14;100717.25;5054676;28;20499;-61
2023/08/18 08:53:48;;;;;;;19.92;12.65;;;;;;;25.66;74.83;100715.34;5055847;28;20791;-62
2023/08/18 08:56:17;;;;;;;18.63;14.82;;;;;;;25.40;76.63;100719.59;5054391;28;20064;-62
2023/08/18 08:58:47;;;;;;;21.70;14.32;;;;;;;25.45;76.70;100705.03;5055941;28;20052;-61
2023/08/18 09:01:16;;;;;;;20.25;14.55;;;;;;;25.34;76.99;100704.28;5055653;28;20049;-61
2023/08/18 09:03:44;;;;;;;19.70;13.05;;;;;;;25.40;76.88;100697.03;5054382;28;20068;-61
2023/08/18 09:06:12;;;;;;;18.77;11.77;;;;;;;25.46;76.65;100698.16;5055601;28;20049;-62
2023/08/18 09:08:41;;;;;;;21.60;12.35;;;;;;;25.56;76.68;100691.63;5055733;28;20056;-61
2023/08/18 09:11:09;;;;;;;18.95;11.45;;;;;;;25.72;75.96;100691.91;5055860;28;20053;-62
2023/08/18 09:13:36;;;;;;;16.42;12.45;;;;;;;25.86;75.36;100691.78;5055500;28;20059;-61
2023/08/18 09:16:05;;;;;;;34.10;12.48;;;;;;;25.66;76.20;100696.41;5055178;28;20059;-62
2023/08/18 09:18:33;;;;;;;19.83;11.27;;;;;;;25.89;75.89;100701.44;5054278;28;20056;-64
2023/08/18 09:21:01;;;;;;;23.35;12.02;;;;;;;26.13;74.77;100700.41;5054283;28;20053;-62
2023/08/18 09:23:29;;;;;;;18.27;11.27;;;;;;;26.30;74.22;100699.41;5057885;28;20053;-61
2023/08/18 09:25:59;;;;;;;17.50;10.98;;;;;;;26.46;72.78;100702.47;5059239;28;20041;-62
2023/08/18 09:28:29;;;;;;;26.05;11.15;;;;;;;26.41;73.20;100706.53;5075138;28;20045;-61
2023/08/18 09:30:56;;;;;;;18.27;11.70;;;;;;;26.61;72.74;100695.41;5069716;28;20048;-61
2023/08/18 09:33:26;;;;;;;20.05;11.48;;;;;;;26.64;72.17;100700.22;5075233;28;20075;-62
2023/08/18 09:36:00;;;;;;;15.77;10.90;;;;;;;26.84;71.19;100694.75;5061486;28;20056;-62
2023/08/18 09:38:29;;;;;;;14.73;10.43;;;;;;;26.80;70.87;100699.66;5055073;28;20516;-61
2023/08/18 09:41:03;;;;;;;15.05;9.75;;;;;;;26.82;71.24;100709.31;5055437;28;20063;-61
2023/08/18 09:43:30;;;;;;;18.05;8.98;;;;;;;26.91;71.33;100700.31;5034002;28;20515;-62
2023/08/18 09:45:57;;;;;;;19.48;9.65;;;;;;;26.89;70.44;100692.25;5036567;28;20508;-62
2023/08/18 09:48:26;;;;;;;13.18;9.07;;;;;;;27.00;70.45;100678.78;5055104;28;20047;-61
2023/08/18 09:50:56;;;;;;;13.65;9.57;;;;;;;27.15;70.14;100680.16;5054657;28;20064;-62
2023/08/18 09:53:27;;;;;;;17.27;9.50;;;;;;;27.04;69.90;100675.91;5051713;28;20045;-61
2023/08/18 09:55:59;;;;;;;20.08;9.18;;;;;;;26.97;70.58;100676.78;5033362;28;20246;-62
2023/08/18 09:58:54;;;;;;;15.43;8.65;;;;;;;26.93;70.25;100669.59;5034692;28;20056;-61
2023/08/18 10:01:23;;;;;;;15.52;9.15;;;;;;;27.18;69.99;100667.97;5034510;28;20064;-61
2023/08/18 10:03:50;;;;;;;21.98;11.70;;;;;;;27.43;68.78;100671.25;5034164;28;20061;-62
2023/08/18 10:06:18;;;;;;;13.85;9.40;;;;;;;27.68;67.98;100674.50;5033419;28;20056;-61
2023/08/18 10:08:46;;;;;;;13.90;8.75;;;;;;;27.67;67.05;100677.72;5034542;28;20563;-63
2023/08/18 10:11:14;;;;;;;14.52;8.90;;;;;;;27.25;68.98;100667.09;5033353;28;20065;-61
2023/08/18 10:13:42;;;;;;;11.57;8.52;;;;;;;27.12;70.19;100674.56;5032696;28;20505;-61
2023/08/18 10:16:09;;;;;;;15.15;8.80;;;;;;;27.27;70.09;100678.75;5033073;28;20057;-61
2023/08/18 10:18:37;;;;;;;16.40;8.60;;;;;;;27.62;68.87;100667.72;5044516;28;20047;-62
2023/08/18 10:21:05;;;;;;;15.68;9.35;;;;;;;27.65;68.18;100666.06;5045157;28;20396;-63
2023/08/18 10:23:33;;;;;;;14.70;9.70;;;;;;;27.48;68.69;100664.31;5054244;28;20052;-63
2023/08/18 10:26:04;;;;;;;16.88;12.15;;;;;;;27.52;69.25;100654.53;5042106;28;20649;-61
2023/08/18 10:28:36;;;;;;;22.38;18.55;;;;;;;27.42;69.44;100649.88;5054219;28;20350;-62
2023/08/18 10:31:10;;;;;;;14.90;10.25;;;;;;;27.45;69.54;100645.38;5069819;28;20063;-64
2023/08/18 10:33:44;;;;;;;11.10;9.45;;;;;;;27.38;69.71;100646.28;5073854;28;20523;-64
2023/08/18 10:36:24;;;;;;;14.48;8.90;;;;;;;27.91;68.28;100641.72;5058030;28;20053;-63
2023/08/18 10:38:54;;;;;;;17.27;9.68;;;;;;;27.85;67.93;100655.56;5052803;28;20041;-62
2023/08/18 10:41:26;;;;;;;12.40;9.10;;;;;;;28.00;67.65;100651.28;5053934;28;20053;-61
2023/08/18 10:43:56;;;;;;;13.13;7.93;;;;;;;27.91;67.84;100656.72;5053874;28;20045;-60
2023/08/18 10:46:36;;;;;;;16.45;8.30;;;;;;;28.12;67.15;100653.50;5039692;28;20056;-61
2023/08/18 10:49:03;;;;;;;12.13;7.65;;;;;;;28.25;66.19;100643.09;5052212;28;20052;-62
2023/08/18 10:51:38;;;;;;;13.13;7.20;;;;;;;28.01;66.51;100652.09;5053938;28;20048;-61
2023/08/18 10:54:07;;;;;;;18.27;7.28;;;;;;;28.05;66.51;100647.16;5052387;28;20071;-62
2023/08/18 10:56:34;;;;;;;12.00;6.70;;;;;;;28.35;65.52;100653.41;5054180;28;20061;-61
2023/08/18 10:59:02;;;;;;;14.77;6.93;;;;;;;28.62;64.35;100656.13;5054091;28;20076;-64
2023/08/18 11:01:31;;;;;;;13.02;6.95;;;;;;;28.73;63.07;100665.22;5053875;28;20049;-63
2023/08/18 11:03:58;;;;;;;10.80;5.88;;;;;;;28.70;62.17;100658.38;5052369;28;20049;-63
2023/08/18 11:06:26;;;;;;;14.23;5.72;;;;;;;28.82;62.07;100658.94;5053304;28;20053;-61
2023/08/18 11:08:54;;;;;;;11.30;5.90;;;;;;;28.86;62.03;100660.44;5035970;28;20080;-62
2023/08/18 11:11:22;;;;;;;13.07;6.28;;;;;;;29.10;61.55;100652.66;5053609;28;20185;-65
2023/08/18 11:13:50;;;;;;;11.55;6.53;;;;;;;29.26;61.07;100661.97;5052016;28;20045;-61
2023/08/18 11:16:18;;;;;;;14.70;6.45;;;;;;;29.53;60.03;100659.69;5052347;28;20056;-62
2023/08/18 11:18:46;;;;;;;10.60;6.70;;;;;;;29.39;59.85;100662.06;5052487;28;20057;-61